sensor_id;sensor_type;location;lat;lon;timestamp;pressure;altitude;pressure_sealevel;temperature;humidity
42633;BME280;28261;53.304;-6.284;2024-01-11T00:00:40;103184.66;;;5.79;94.81
42633;BME280;28261;53.304;-6.284;2024-01-11T00:02:44;103194.31;;;5.79;94.81
42633;BME280;28261;53.304;-6.284;2024-01-11T00:04:48;103187.28;;;5.79;94.96
42633;BME280;28261;53.304;-6.284;2024-01-11T00:06:52;103185.56;;;5.80;95.15
42633;BME280;28261;53.304;-6.284;2024-01-11T00:08:56;103184.66;;;5.79;95.07
42633;BME280;28261;53.304;-6.284;2024-01-11T00:10:59;103189.03;;;5.80;95.21
42633;BME280;28261;53.304;-6.284;2024-01-11T00:13:03;103188.16;;;5.81;95.19
42633;BME280;28261;53.304;-6.284;2024-01-11T00:15:09;103194.28;;;5.82;95.04
42633;BME280;28261;53.304;-6.284;2024-01-11T00:17:13;103193.41;;;5.83;95.02
42633;BME280;28261;53.304;-6.284;2024-01-11T00:19:18;103193.41;;;5.83;94.74
42633;BME280;28261;53.304;-6.284;2024-01-11T00:21:22;103192.53;;;5.82;94.62
42633;BME280;28261;53.304;-6.284;2024-01-11T00:23:25;103192.53;;;5.84;94.43
42633;BME280;28261;53.304;-6.284;2024-01-11T00:25:29;103192.53;;;5.84;94.23
42633;BME280;28261;53.304;-6.284;2024-01-11T00:27:33;103191.63;;;5.85;94.54
42633;BME280;28261;53.304;-6.284;2024-01-11T00:29:37;103197.81;;;5.84;94.31
42633;BME280;28261;53.304;-6.284;2024-01-11T00:31:42;103196.03;;;5.84;94.33
42633;BME280;28261;53.304;-6.284;2024-01-11T00:33:46;103199.53;;;5.83;94.42
42633;BME280;28261;53.304;-6.284;2024-01-11T00:35:48;103203.06;;;5.84;94.34
42633;BME280;28261;53.304;-6.284;2024-01-11T00:37:52;103196.91;;;5.83;94.26
42633;BME280;28261;53.304;-6.284;2024-01-11T00:39:56;103200.44;;;5.84;94.53
42633;BME280;28261;53.304;-6.284;2024-01-11T00:41:59;103197.81;;;5.84;94.79
42633;BME280;28261;53.304;-6.284;2024-01-11T00:44:04;103195.16;;;5.82;94.53
42633;BME280;28261;53.304;-6.284;2024-01-11T00:46:09;103201.31;;;5.83;94.59
42633;BME280;28261;53.304;-6.284;2024-01-11T00:48:14;103195.16;;;5.82;94.87
42633;BME280;28261;53.304;-6.284;2024-01-11T00:50:18;103198.69;;;5.83;94.81
42633;BME280;28261;53.304;-6.284;2024-01-11T00:52:22;103206.56;;;5.83;95.05
42633;BME280;28261;53.304;-6.284;2024-01-11T00:54:26;103205.69;;;5.84;95.18
42633;BME280;28261;53.304;-6.284;2024-01-11T00:56:30;103202.16;;;5.83;94.83
42633;BME280;28261;53.304;-6.284;2024-01-11T00:58:33;103201.28;;;5.84;94.94
42633;BME280;28261;53.304;-6.284;2024-01-11T01:00:37;103199.53;;;5.85;94.67
42633;BME280;28261;53.304;-6.284;2024-01-11T01:02:41;103201.28;;;5.86;94.54
42633;BME280;28261;53.304;-6.284;2024-01-11T01:04:47;103199.53;;;5.85;94.63
42633;BME280;28261;53.304;-6.284;2024-01-11T01:06:50;103206.53;;;5.86;94.82
42633;BME280;28261;53.304;-6.284;2024-01-11T01:08:55;103210.06;;;5.85;94.76
42633;BME280;28261;53.304;-6.284;2024-01-11T01:10:59;103206.53;;;5.86;94.77
42633;BME280;28261;53.304;-6.284;2024-01-11T01:13:03;103203.94;;;5.84;94.59
42633;BME280;28261;53.304;-6.284;2024-01-11T01:15:07;103210.06;;;5.85;95.01
42633;BME280;28261;53.304;-6.284;2024-01-11T01:17:11;103213.59;;;5.84;94.64
42633;BME280;28261;53.304;-6.284;2024-01-11T01:19:18;103214.47;;;5.84;94.64
42633;BME280;28261;53.304;-6.284;2024-01-11T01:21:23;103201.28;;;5.84;94.51
42633;BME280;28261;53.304;-6.284;2024-01-11T01:23:27;103210.06;;;5.85;94.48
42633;BME280;28261;53.304;-6.284;2024-01-11T01:25:31;103219.72;;;5.84;94.49
42633;BME280;28261;53.304;-6.284;2024-01-11T01:27:35;103217.06;;;5.86;94.16
42633;BME280;28261;53.304;-6.284;2024-01-11T01:29:38;103214.44;;;5.86;94.26
42633;BME280;28261;53.304;-6.284;2024-01-11T01:31:43;103220.59;;;5.88;94.19
42633;BME280;28261;53.304;-6.284;2024-01-11T01:33:46;103218.84;;;5.87;94.29
42633;BME280;28261;53.304;-6.284;2024-01-11T01:35:50;103220.59;;;5.85;94.46
42633;BME280;28261;53.304;-6.284;2024-01-11T01:37:55;103214.47;;;5.84;94.77
42633;BME280;28261;53.304;-6.284;2024-01-11T01:39:59;103217.94;;;5.85;94.83
42633;BME280;28261;53.304;-6.284;2024-01-11T01:42:04;103210.94;;;5.85;94.69
42633;BME280;28261;53.304;-6.284;2024-01-11T01:44:07;103212.66;;;5.86;94.52
42633;BME280;28261;53.304;-6.284;2024-01-11T01:46:13;103210.94;;;5.85;94.87
42633;BME280;28261;53.304;-6.284;2024-01-11T01:48:21;103219.72;;;5.86;95.13
42633;BME280;28261;53.304;-6.284;2024-01-11T01:50:26;103214.44;;;5.86;95.20
42633;BME280;28261;53.304;-6.284;2024-01-11T01:52:30;103206.53;;;5.86;95.30
42633;BME280;28261;53.304;-6.284;2024-01-11T01:54:36;103214.47;;;5.84;96.01
42633;BME280;28261;53.304;-6.284;2024-01-11T01:56:40;103216.22;;;5.82;96.26
42633;BME280;28261;53.304;-6.284;2024-01-11T01:58:44;103217.97;;;5.82;96.46
42633;BME280;28261;53.304;-6.284;2024-01-11T02:00:48;103217.97;;;5.82;96.79
42633;BME280;28261;53.304;-6.284;2024-01-11T02:02:55;103215.34;;;5.82;97.51
42633;BME280;28261;53.304;-6.284;2024-01-11T02:04:59;103218.84;;;5.82;97.83
42633;BME280;28261;53.304;-6.284;2024-01-11T02:07:04;103217.97;;;5.83;98.70
42633;BME280;28261;53.304;-6.284;2024-01-11T02:09:09;103225.84;;;5.85;98.68
42633;BME280;28261;53.304;-6.284;2024-01-11T02:11:17;103229.38;;;5.85;99.95
42633;BME280;28261;53.304;-6.284;2024-01-11T02:13:22;103231.13;;;5.88;100.00
42633;BME280;28261;53.304;-6.284;2024-01-11T02:15:26;103233.75;;;5.88;100.00
42633;BME280;28261;53.304;-6.284;2024-01-11T02:17:30;103240.75;;;5.87;100.00
42633;BME280;28261;53.304;-6.284;2024-01-11T02:19:34;103239.00;;;5.89;100.00
42633;BME280;28261;53.304;-6.284;2024-01-11T02:21:38;103245.13;;;5.91;100.00
42633;BME280;28261;53.304;-6.284;2024-01-11T02:23:43;103247.75;;;5.91;100.00
42633;BME280;28261;53.304;-6.284;2024-01-11T02:25:50;103249.50;;;5.92;100.00
42633;BME280;28261;53.304;-6.284;2024-01-11T02:27:54;103247.72;;;5.93;100.00
42633;BME280;28261;53.304;-6.284;2024-01-11T02:29:58;103253.00;;;5.96;100.00
42633;BME280;28261;53.304;-6.284;2024-01-11T02:32:02;103253.00;;;5.96;100.00
42633;BME280;28261;53.304;-6.284;2024-01-11T02:34:07;103250.38;;;5.99;100.00
42633;BME280;28261;53.304;-6.284;2024-01-11T02:36:10;103254.75;;;6.00;100.00
42633;BME280;28261;53.304;-6.284;2024-01-11T02:38:13;103259.13;;;6.01;99.74
42633;BME280;28261;53.304;-6.284;2024-01-11T02:40:19;103256.47;;;6.04;98.15
42633;BME280;28261;53.304;-6.284;2024-01-11T02:42:24;103264.38;;;6.04;96.99
42633;BME280;28261;53.304;-6.284;2024-01-11T02:44:29;103267.00;;;6.07;95.15
42633;BME280;28261;53.304;-6.284;2024-01-11T02:46:33;103268.72;;;6.10;93.64
42633;BME280;28261;53.304;-6.284;2024-01-11T02:48:35;103259.94;;;6.11;92.62
42633;BME280;28261;53.304;-6.284;2024-01-11T02:50:39;103266.97;;;6.10;91.67
42633;BME280;28261;53.304;-6.284;2024-01-11T02:52:42;103257.31;;;6.11;91.71
42633;BME280;28261;53.304;-6.284;2024-01-11T02:54:46;103263.47;;;6.10;91.11
42633;BME280;28261;53.304;-6.284;2024-01-11T02:56:49;103254.66;;;6.09;90.96
42633;BME280;28261;53.304;-6.284;2024-01-11T02:58:55;103265.22;;;6.08;91.29
42633;BME280;28261;53.304;-6.284;2024-01-11T03:00:58;103264.34;;;6.07;91.27
42633;BME280;28261;53.304;-6.284;2024-01-11T03:03:02;103264.38;;;6.06;91.58
42633;BME280;28261;53.304;-6.284;2024-01-11T03:05:05;103267.00;;;6.06;91.47
42633;BME280;28261;53.304;-6.284;2024-01-11T03:07:09;103272.28;;;6.06;92.09
42633;BME280;28261;53.304;-6.284;2024-01-11T03:09:13;103266.09;;;6.05;92.31
42633;BME280;28261;53.304;-6.284;2024-01-11T03:11:16;103267.00;;;6.06;92.69
42633;BME280;28261;53.304;-6.284;2024-01-11T03:13:19;103270.50;;;6.05;93.03
42633;BME280;28261;53.304;-6.284;2024-01-11T03:15:24;103269.66;;;6.04;93.33
42633;BME280;28261;53.304;-6.284;2024-01-11T03:17:28;103274.03;;;6.04;93.77
42633;BME280;28261;53.304;-6.284;2024-01-11T03:19:32;103274.91;;;6.04;93.91
42633;BME280;28261;53.304;-6.284;2024-01-11T03:21:41;103269.66;;;6.01;94.66
42633;BME280;28261;53.304;-6.284;2024-01-11T03:23:44;103275.81;;;6.00;95.16
42633;BME280;28261;53.304;-6.284;2024-01-11T03:25:47;103275.81;;;6.00;95.41
42633;BME280;28261;53.304;-6.284;2024-01-11T03:27:51;103274.94;;;5.98;96.01
42633;BME280;28261;53.304;-6.284;2024-01-11T03:29:55;103275.78;;;5.97;96.09
42633;BME280;28261;53.304;-6.284;2024-01-11T03:32:00;103281.97;;;5.98;96.54
42633;BME280;28261;53.304;-6.284;2024-01-11T03:34:03;103277.56;;;5.95;96.73
42633;BME280;28261;53.304;-6.284;2024-01-11T03:36:07;103282.84;;;5.95;96.91
42633;BME280;28261;53.304;-6.284;2024-01-11T03:38:11;103281.97;;;5.95;96.88
42633;BME280;28261;53.304;-6.284;2024-01-11T03:40:15;103288.09;;;5.95;96.96
42633;BME280;28261;53.304;-6.284;2024-01-11T03:42:19;103291.63;;;5.94;96.76
42633;BME280;28261;53.304;-6.284;2024-01-11T03:44:23;103288.09;;;5.95;96.27
42633;BME280;28261;53.304;-6.284;2024-01-11T03:46:27;103289.84;;;5.93;96.45
42633;BME280;28261;53.304;-6.284;2024-01-11T03:48:32;103291.63;;;5.94;96.35
42633;BME280;28261;53.304;-6.284;2024-01-11T03:50:38;103291.63;;;5.94;95.72
42633;BME280;28261;53.304;-6.284;2024-01-11T03:52:42;103290.75;;;5.95;95.28
42633;BME280;28261;53.304;-6.284;2024-01-11T03:54:45;103299.47;;;5.97;94.70
42633;BME280;28261;53.304;-6.284;2024-01-11T03:56:48;103303.91;;;5.98;93.71
42633;BME280;28261;53.304;-6.284;2024-01-11T03:58:52;103299.53;;;5.99;93.21
42633;BME280;28261;53.304;-6.284;2024-01-11T04:00:56;103298.63;;;5.98;92.84
42633;BME280;28261;53.304;-6.284;2024-01-11T04:02:59;103296.91;;;5.99;92.23
42633;BME280;28261;53.304;-6.284;2024-01-11T04:05:06;103292.50;;;5.99;91.95
42633;BME280;28261;53.304;-6.284;2024-01-11T04:07:09;103290.75;;;5.98;91.57
42633;BME280;28261;53.304;-6.284;2024-01-11T04:09:13;103288.94;;;5.97;91.17
42633;BME280;28261;53.304;-6.284;2024-01-11T04:11:17;103290.72;;;5.97;90.89
42633;BME280;28261;53.304;-6.284;2024-01-11T04:13:21;103283.69;;;5.96;90.62
42633;BME280;28261;53.304;-6.284;2024-01-11T04:15:26;103289.84;;;5.93;90.86
42633;BME280;28261;53.304;-6.284;2024-01-11T04:17:30;103296.00;;;5.93;90.94
42633;BME280;28261;53.304;-6.284;2024-01-11T04:19:33;103294.25;;;5.94;90.97
42633;BME280;28261;53.304;-6.284;2024-01-11T04:21:38;103304.78;;;5.94;90.73
42633;BME280;28261;53.304;-6.284;2024-01-11T04:23:42;103300.38;;;5.93;90.95
42633;BME280;28261;53.304;-6.284;2024-01-11T04:25:46;103303.03;;;5.93;90.87
42633;BME280;28261;53.304;-6.284;2024-01-11T04:27:49;103303.03;;;5.93;90.94
42633;BME280;28261;53.304;-6.284;2024-01-11T04:29:53;103303.91;;;5.93;91.26
42633;BME280;28261;53.304;-6.284;2024-01-11T04:31:57;103306.53;;;5.95;91.10
42633;BME280;28261;53.304;-6.284;2024-01-11T04:34:01;103312.69;;;5.94;91.41
42633;BME280;28261;53.304;-6.284;2024-01-11T04:36:05;103305.66;;;5.93;91.12
42633;BME280;28261;53.304;-6.284;2024-01-11T04:38:13;103312.69;;;5.92;91.31
42633;BME280;28261;53.304;-6.284;2024-01-11T04:40:17;103304.78;;;5.94;90.94
42633;BME280;28261;53.304;-6.284;2024-01-11T04:42:20;103303.03;;;5.93;90.71
42633;BME280;28261;53.304;-6.284;2024-01-11T04:44:24;103313.56;;;5.93;90.70
42633;BME280;28261;53.304;-6.284;2024-01-11T04:46:29;103312.69;;;5.92;90.27
42633;BME280;28261;53.304;-6.284;2024-01-11T04:48:33;103310.06;;;5.91;90.10
42633;BME280;28261;53.304;-6.284;2024-01-11T04:50:36;103310.94;;;5.91;90.05
42633;BME280;28261;53.304;-6.284;2024-01-11T04:52:40;103324.09;;;5.90;90.37
42633;BME280;28261;53.304;-6.284;2024-01-11T04:54:44;103324.97;;;5.90;90.58
42633;BME280;28261;53.304;-6.284;2024-01-11T04:56:48;103324.13;;;5.88;90.71
42633;BME280;28261;53.304;-6.284;2024-01-11T04:58:52;103331.13;;;5.91;91.06
42633;BME280;28261;53.304;-6.284;2024-01-11T05:00:54;103322.34;;;5.90;90.86
42633;BME280;28261;53.304;-6.284;2024-01-11T05:02:58;103337.25;;;5.91;90.81
42633;BME280;28261;53.304;-6.284;2024-01-11T05:05:02;103338.16;;;5.93;90.92
42633;BME280;28261;53.304;-6.284;2024-01-11T05:07:05;103331.09;;;5.94;91.38
42633;BME280;28261;53.304;-6.284;2024-01-11T05:09:08;103334.63;;;5.93;91.33
42633;BME280;28261;53.304;-6.284;2024-01-11T05:11:17;103339.00;;;5.94;91.67
42633;BME280;28261;53.304;-6.284;2024-01-11T05:13:21;103337.25;;;5.93;91.77
42633;BME280;28261;53.304;-6.284;2024-01-11T05:15:25;103345.16;;;5.93;91.78
42633;BME280;28261;53.304;-6.284;2024-01-11T05:17:29;103341.66;;;5.92;91.04
42633;BME280;28261;53.304;-6.284;2024-01-11T05:19:33;103340.78;;;5.92;90.50
42633;BME280;28261;53.304;-6.284;2024-01-11T05:21:37;103343.41;;;5.92;89.82
42633;BME280;28261;53.304;-6.284;2024-01-11T05:23:40;103341.63;;;5.94;88.66
42633;BME280;28261;53.304;-6.284;2024-01-11T05:25:45;103339.88;;;5.93;88.54
42633;BME280;28261;53.304;-6.284;2024-01-11T05:27:50;103336.34;;;5.96;87.78
42633;BME280;28261;53.304;-6.284;2024-01-11T05:29:53;103339.91;;;5.98;87.93
42633;BME280;28261;53.304;-6.284;2024-01-11T05:31:57;103346.88;;;5.97;87.84
42633;BME280;28261;53.304;-6.284;2024-01-11T05:34:01;103333.72;;;5.97;87.84
42633;BME280;28261;53.304;-6.284;2024-01-11T05:36:05;103338.97;;;5.97;88.18
42633;BME280;28261;53.304;-6.284;2024-01-11T05:38:10;103341.63;;;5.97;88.73
42633;BME280;28261;53.304;-6.284;2024-01-11T05:40:14;103347.78;;;5.96;88.72
42633;BME280;28261;53.304;-6.284;2024-01-11T05:42:17;103342.53;;;5.98;89.68
42633;BME280;28261;53.304;-6.284;2024-01-11T05:44:21;103339.00;;;5.96;90.21
42633;BME280;28261;53.304;-6.284;2024-01-11T05:46:25;103345.16;;;5.96;90.83
42633;BME280;28261;53.304;-6.284;2024-01-11T05:48:31;103353.94;;;5.95;91.24
42633;BME280;28261;53.304;-6.284;2024-01-11T05:50:35;103350.41;;;5.96;91.72
42633;BME280;28261;53.304;-6.284;2024-01-11T05:52:39;103349.53;;;5.96;91.60
42633;BME280;28261;53.304;-6.284;2024-01-11T05:54:42;103352.16;;;5.97;91.88
42633;BME280;28261;53.304;-6.284;2024-01-11T05:56:46;103356.56;;;5.97;91.67
42633;BME280;28261;53.304;-6.284;2024-01-11T05:58:50;103352.16;;;5.97;91.49
42633;BME280;28261;53.304;-6.284;2024-01-11T06:00:55;103359.19;;;5.98;91.24
42633;BME280;28261;53.304;-6.284;2024-01-11T06:02:58;103353.94;;;6.00;91.13
42633;BME280;28261;53.304;-6.284;2024-01-11T06:05:02;103361.81;;;6.00;90.96
42633;BME280;28261;53.304;-6.284;2024-01-11T06:07:06;103354.84;;;5.99;91.13
42633;BME280;28261;53.304;-6.284;2024-01-11T06:09:10;103364.44;;;6.01;91.05
42633;BME280;28261;53.304;-6.284;2024-01-11T06:11:14;103362.72;;;6.00;91.05
42633;BME280;28261;53.304;-6.284;2024-01-11T06:13:20;103358.28;;;6.04;90.78
42633;BME280;28261;53.304;-6.284;2024-01-11T06:15:24;103367.09;;;6.03;90.89
42633;BME280;28261;53.304;-6.284;2024-01-11T06:17:28;103359.19;;;6.04;91.05
42633;BME280;28261;53.304;-6.284;2024-01-11T06:19:32;103365.31;;;6.06;90.97
42633;BME280;28261;53.304;-6.284;2024-01-11T06:21:36;103367.06;;;6.06;90.68
42633;BME280;28261;53.304;-6.284;2024-01-11T06:23:40;103375.84;;;6.06;90.27
42633;BME280;28261;53.304;-6.284;2024-01-11T06:25:44;103385.50;;;6.07;89.86
42633;BME280;28261;53.304;-6.284;2024-01-11T06:27:48;103386.34;;;6.08;89.40
42633;BME280;28261;53.304;-6.284;2024-01-11T06:29:52;103390.75;;;6.07;89.49
42633;BME280;28261;53.304;-6.284;2024-01-11T06:31:56;103392.53;;;6.08;89.96
42633;BME280;28261;53.304;-6.284;2024-01-11T06:34:02;103389.88;;;6.10;90.20
42633;BME280;28261;53.304;-6.284;2024-01-11T06:36:06;103394.25;;;6.09;90.41
42633;BME280;28261;53.304;-6.284;2024-01-11T06:38:10;103409.16;;;6.10;90.98
42633;BME280;28261;53.304;-6.284;2024-01-11T06:40:15;103400.41;;;6.10;91.79
42633;BME280;28261;53.304;-6.284;2024-01-11T06:42:18;103413.56;;;6.12;92.12
42633;BME280;28261;53.304;-6.284;2024-01-11T06:44:22;103410.94;;;6.08;92.44
42633;BME280;28261;53.304;-6.284;2024-01-11T06:46:26;103414.44;;;6.09;92.89
42633;BME280;28261;53.304;-6.284;2024-01-11T06:48:30;103415.31;;;6.08;93.19
42633;BME280;28261;53.304;-6.284;2024-01-11T06:50:35;103419.72;;;6.07;93.06
42633;BME280;28261;53.304;-6.284;2024-01-11T06:52:39;103422.38;;;6.07;92.33
42633;BME280;28261;53.304;-6.284;2024-01-11T06:54:43;103430.25;;;6.07;91.82
42633;BME280;28261;53.304;-6.284;2024-01-11T06:56:47;103432.91;;;6.07;91.78
42633;BME280;28261;53.304;-6.284;2024-01-11T06:58:51;103434.66;;;6.07;91.18
42633;BME280;28261;53.304;-6.284;2024-01-11T07:00:55;103441.66;;;6.06;90.53
42633;BME280;28261;53.304;-6.284;2024-01-11T07:02:59;103445.19;;;6.05;90.20
42633;BME280;28261;53.304;-6.284;2024-01-11T07:05:03;103443.47;;;6.04;90.17
42633;BME280;28261;53.304;-6.284;2024-01-11T07:07:08;103439.91;;;6.05;89.82
42633;BME280;28261;53.304;-6.284;2024-01-11T07:09:11;103446.97;;;6.03;89.95
42633;BME280;28261;53.304;-6.284;2024-01-11T07:11:15;103451.34;;;6.04;89.94
42633;BME280;28261;53.304;-6.284;2024-01-11T07:13:19;103445.19;;;6.04;90.02
42633;BME280;28261;53.304;-6.284;2024-01-11T07:15:23;103448.72;;;6.06;89.98
42633;BME280;28261;53.304;-6.284;2024-01-11T07:17:27;103447.81;;;6.04;90.21
42633;BME280;28261;53.304;-6.284;2024-01-11T07:19:30;103452.22;;;6.05;90.36
42633;BME280;28261;53.304;-6.284;2024-01-11T07:21:34;103450.44;;;6.05;90.31
42633;BME280;28261;53.304;-6.284;2024-01-11T07:23:39;103446.94;;;6.06;90.99
42633;BME280;28261;53.304;-6.284;2024-01-11T07:25:43;103453.97;;;6.07;91.11
42633;BME280;28261;53.304;-6.284;2024-01-11T07:27:47;103457.47;;;6.06;91.27
42633;BME280;28261;53.304;-6.284;2024-01-11T07:29:50;103457.47;;;6.06;91.78
42633;BME280;28261;53.304;-6.284;2024-01-11T07:31:53;103459.25;;;6.06;91.82
42633;BME280;28261;53.304;-6.284;2024-01-11T07:33:56;103460.97;;;6.05;91.53
42633;BME280;28261;53.304;-6.284;2024-01-11T07:36:00;103460.97;;;6.05;91.29
42633;BME280;28261;53.304;-6.284;2024-01-11T07:38:03;103471.50;;;6.05;90.96
42633;BME280;28261;53.304;-6.284;2024-01-11T07:40:09;103468.91;;;6.07;90.65
42633;BME280;28261;53.304;-6.284;2024-01-11T07:42:14;103480.28;;;6.09;90.03
42633;BME280;28261;53.304;-6.284;2024-01-11T07:44:18;103482.06;;;6.10;88.74
42633;BME280;28261;53.304;-6.284;2024-01-11T07:46:23;103484.69;;;6.12;88.26
42633;BME280;28261;53.304;-6.284;2024-01-11T07:48:40;103478.53;;;6.13;87.27
42633;BME280;28261;53.304;-6.284;2024-01-11T07:50:44;103483.78;;;6.16;86.77
42633;BME280;28261;53.304;-6.284;2024-01-11T07:52:48;103486.41;;;6.17;86.13
42633;BME280;28261;53.304;-6.284;2024-01-11T07:54:51;103484.63;;;6.18;85.73
42633;BME280;28261;53.304;-6.284;2024-01-11T07:56:57;103485.53;;;6.17;86.10
42633;BME280;28261;53.304;-6.284;2024-01-11T07:59:01;103488.19;;;6.17;86.40
42633;BME280;28261;53.304;-6.284;2024-01-11T08:01:05;103502.22;;;6.17;86.54
42633;BME280;28261;53.304;-6.284;2024-01-11T08:03:09;103496.06;;;6.17;86.95
42633;BME280;28261;53.304;-6.284;2024-01-11T08:05:13;103500.44;;;6.16;87.34
42633;BME280;28261;53.304;-6.284;2024-01-11T08:07:17;103503.09;;;6.15;87.76
42633;BME280;28261;53.304;-6.284;2024-01-11T08:09:21;103497.81;;;6.15;88.17
42633;BME280;28261;53.304;-6.284;2024-01-11T08:11:25;103504.84;;;6.16;88.56
42633;BME280;28261;53.304;-6.284;2024-01-11T08:13:34;103503.97;;;6.17;89.16
42633;BME280;28261;53.304;-6.284;2024-01-11T08:15:40;103512.75;;;6.16;89.58
42633;BME280;28261;53.304;-6.284;2024-01-11T08:17:44;103508.34;;;6.15;90.25
42633;BME280;28261;53.304;-6.284;2024-01-11T08:19:50;103519.78;;;6.14;90.43
42633;BME280;28261;53.304;-6.284;2024-01-11T08:21:53;103518.03;;;6.14;90.98
42633;BME280;28261;53.304;-6.284;2024-01-11T08:23:58;103526.81;;;6.13;91.12
42633;BME280;28261;53.304;-6.284;2024-01-11T08:26:04;103515.41;;;6.13;91.33
42633;BME280;28261;53.304;-6.284;2024-01-11T08:28:07;103525.94;;;6.14;91.24
42633;BME280;28261;53.304;-6.284;2024-01-11T08:30:14;103522.41;;;6.14;91.31
42633;BME280;28261;53.304;-6.284;2024-01-11T08:32:18;103526.81;;;6.13;91.57
42633;BME280;28261;53.304;-6.284;2024-01-11T08:34:32;103525.03;;;6.12;91.73
42633;BME280;28261;53.304;-6.284;2024-01-11T08:36:37;103532.09;;;6.12;91.87
42633;BME280;28261;53.304;-6.284;2024-01-11T08:38:40;103531.22;;;6.11;92.31
42633;BME280;28261;53.304;-6.284;2024-01-11T08:40:44;103532.06;;;6.13;92.13
42633;BME280;28261;53.304;-6.284;2024-01-11T08:42:48;103534.72;;;6.13;92.52
42633;BME280;28261;53.304;-6.284;2024-01-11T08:44:52;103532.94;;;6.14;92.64
42633;BME280;28261;53.304;-6.284;2024-01-11T08:46:57;103539.97;;;6.15;91.44
42633;BME280;28261;53.304;-6.284;2024-01-11T08:49:02;103539.94;;;6.18;90.79
42633;BME280;28261;53.304;-6.284;2024-01-11T08:51:06;103552.25;;;6.17;90.18
42633;BME280;28261;53.304;-6.284;2024-01-11T08:53:10;103553.16;;;6.19;90.07
42633;BME280;28261;53.304;-6.284;2024-01-11T08:55:14;103552.25;;;6.19;90.35
42633;BME280;28261;53.304;-6.284;2024-01-11T08:57:17;103568.94;;;6.19;90.36
42633;BME280;28261;53.304;-6.284;2024-01-11T08:59:22;103556.63;;;6.21;90.50
42633;BME280;28261;53.304;-6.284;2024-01-11T09:01:28;103554.00;;;6.20;90.88
42633;BME280;28261;53.304;-6.284;2024-01-11T09:03:33;103556.63;;;6.21;90.25
42633;BME280;28261;53.304;-6.284;2024-01-11T09:05:37;103565.41;;;6.20;90.34
42633;BME280;28261;53.304;-6.284;2024-01-11T09:07:42;103552.25;;;6.23;90.03
42633;BME280;28261;53.304;-6.284;2024-01-11T09:09:46;103561.03;;;6.22;90.16
42633;BME280;28261;53.304;-6.284;2024-01-11T09:11:58;103575.06;;;6.23;90.49
42633;BME280;28261;53.304;-6.284;2024-01-11T09:14:02;103558.41;;;6.21;90.96
42633;BME280;28261;53.304;-6.284;2024-01-11T09:16:06;103575.06;;;6.21;90.93
42633;BME280;28261;53.304;-6.284;2024-01-11T09:18:11;103575.94;;;6.20;91.40
42633;BME280;28261;53.304;-6.284;2024-01-11T09:20:16;103573.31;;;6.20;91.42
42633;BME280;28261;53.304;-6.284;2024-01-11T09:22:21;103587.38;;;6.21;91.90
42633;BME280;28261;53.304;-6.284;2024-01-11T09:24:24;103585.59;;;6.21;91.70
42633;BME280;28261;53.304;-6.284;2024-01-11T09:26:35;103589.09;;;6.22;91.81
42633;BME280;28261;53.304;-6.284;2024-01-11T09:28:40;103588.22;;;6.23;91.69
42633;BME280;28261;53.304;-6.284;2024-01-11T09:30:44;103587.38;;;6.24;91.64
42633;BME280;28261;53.304;-6.284;2024-01-11T09:32:48;103597.00;;;6.22;91.76
42633;BME280;28261;53.304;-6.284;2024-01-11T09:34:51;103599.66;;;6.22;91.77
42633;BME280;28261;53.304;-6.284;2024-01-11T09:36:56;103600.53;;;6.22;91.75
42633;BME280;28261;53.304;-6.284;2024-01-11T09:39:01;103601.41;;;6.23;91.45
42633;BME280;28261;53.304;-6.284;2024-01-11T09:41:09;103609.31;;;6.23;91.71
42633;BME280;28261;53.304;-6.284;2024-01-11T09:43:19;103611.06;;;6.22;91.75
42633;BME280;28261;53.304;-6.284;2024-01-11T09:45:22;103611.94;;;6.23;91.72
42633;BME280;28261;53.304;-6.284;2024-01-11T09:47:28;103608.44;;;6.24;91.95
42633;BME280;28261;53.304;-6.284;2024-01-11T09:49:33;103612.84;;;6.23;92.18
42633;BME280;28261;53.304;-6.284;2024-01-11T09:51:37;103616.34;;;6.24;92.30
42633;BME280;28261;53.304;-6.284;2024-01-11T09:53:43;103610.19;;;6.25;92.35
42633;BME280;28261;53.304;-6.284;2024-01-11T09:55:47;103614.56;;;6.26;92.37
42633;BME280;28261;53.304;-6.284;2024-01-11T09:57:53;103615.47;;;6.26;92.71
42633;BME280;28261;53.304;-6.284;2024-01-11T10:00:04;103623.38;;;6.26;92.95
42633;BME280;28261;53.304;-6.284;2024-01-11T10:02:11;103622.47;;;6.29;93.15
42633;BME280;28261;53.304;-6.284;2024-01-11T10:04:15;103637.41;;;6.27;92.86
42633;BME280;28261;53.304;-6.284;2024-01-11T10:06:20;103640.91;;;6.29;92.44
42633;BME280;28261;53.304;-6.284;2024-01-11T10:08:24;103645.31;;;6.27;92.31
42633;BME280;28261;53.304;-6.284;2024-01-11T10:10:30;103650.56;;;6.27;92.32
42633;BME280;28261;53.304;-6.284;2024-01-11T10:12:35;103648.84;;;6.28;92.79
42633;BME280;28261;53.304;-6.284;2024-01-11T10:14:39;103650.56;;;6.27;92.90
42633;BME280;28261;53.304;-6.284;2024-01-11T10:16:42;103653.22;;;6.27;92.81
42633;BME280;28261;53.304;-6.284;2024-01-11T10:18:47;103656.75;;;6.28;93.18
42633;BME280;28261;53.304;-6.284;2024-01-11T10:20:51;103655.84;;;6.29;93.23
42633;BME280;28261;53.304;-6.284;2024-01-11T10:22:56;103664.63;;;6.31;93.30
42633;BME280;28261;53.304;-6.284;2024-01-11T10:25:10;103664.63;;;6.31;93.21
42633;BME280;28261;53.304;-6.284;2024-01-11T10:27:16;103668.13;;;6.31;93.01
42633;BME280;28261;53.304;-6.284;2024-01-11T10:29:19;103666.38;;;6.32;93.18
42633;BME280;28261;53.304;-6.284;2024-01-11T10:31:24;103676.94;;;6.33;93.32
42633;BME280;28261;53.304;-6.284;2024-01-11T10:33:29;103675.16;;;6.32;93.18
42633;BME280;28261;53.304;-6.284;2024-01-11T10:35:34;103676.91;;;6.36;93.58
42633;BME280;28261;53.304;-6.284;2024-01-11T10:37:38;103673.38;;;6.33;93.48
42633;BME280;28261;53.304;-6.284;2024-01-11T10:39:42;103682.19;;;6.36;93.25
42633;BME280;28261;53.304;-6.284;2024-01-11T10:41:47;103680.41;;;6.37;92.36
42633;BME280;28261;53.304;-6.284;2024-01-11T10:43:58;103673.41;;;6.36;92.56
42633;BME280;28261;53.304;-6.284;2024-01-11T10:46:04;103681.31;;;6.37;92.03
42633;BME280;28261;53.304;-6.284;2024-01-11T10:48:13;103676.03;;;6.40;91.51
42633;BME280;28261;53.304;-6.284;2024-01-11T10:50:18;103681.28;;;6.42;91.06